X  Έξοδος Στοιχεία αεροπορικών μετεωρολογικών δεδομένων METAR     LGAL Alexandroupoli Democritus Airport
Θερμοκρασία
9°C Θερμοκρασία
7°C Σημείο Δρόσου
87% Υγρασία



Άνεμος
0 KM/H
0 MPH
0 M/S
0 KTS



Ηρεμία
Β
Τρέχουσες συνθήκες

Καθαρός Καθαρός
Ατμοσφαιρική Πίεση 1025.92 (hPa) - 30.3 (inHg)
Ορατότητα 6.2 (μίλι) - 10 (km)
Aεροδρόμιο
Κωδικός αεροδρομίου LGAL

Τοποθεσία: Alexandroupoli Democritus Airport
Απόσταση: 60 (km)

Metar:
LGAL 190450Z 00000KT CAVOK 09/07 Q1026

Ώρα: 19-10-2021 07:50 EEST